Terminal Aerodrome Forecast
Issued by NWS Shreveport, LA

Home | Current Version | Previous Version | Text Only | Print | Product List | Glossary On
Versions: 1 2 3 4 5 6 7 8 9 10 11 12 13 14 15 16 17 18 19 20 21 22 23 24 25 26 27 28 29 30 31 32 33 34
000
FTUS44 KSHV 250520
TAFLFK
TAF
KLFK 250520Z 2506/2606 VRB05KT P6SM VCSH SCT007 BKN035
      TEMPO 2506/2509 BKN007
     FM250900 28005KT 6SM BR OVC007
     FM251100 28005KT 5SM BR OVC005
     FM251500 28009KT P6SM OVC015
     FM251700 29009KT P6SM BKN025
     FM251900 29009KT P6SM BKN035=

USA.gov is the U.S. government's official web portal to all federal, state and local government web resources and services.